Time;durP1;ratioP1;P1;durP2;ratioP2;P2;SDS_P1;SDS_P2;PMS_P1;PMS_P2;Temp;Humidity;BMP_temperature;BMP_pressure;BME280_temperature;BME280_humidity;BME280_pressure;Samples;Min_cycle;Max_cycle;Signal;HPM_P1;HPM_P2
2020/12/26 00:00:39;;;;;;;8.77;4.50;;;-0.30;99.90;;;1.07;98.88;100884.78;4732739;30;20300;-67
2020/12/26 00:03:07;;;;;;;7.33;4.47;;;-0.20;99.90;;;0.85;98.84;100901.84;4732865;30;20243;-67
2020/12/26 00:05:38;;;;;;;4.80;3.37;;;-0.10;99.90;;;0.66;98.67;100904.47;4732533;30;20276;-67
2020/12/26 00:08:06;;;;;;;6.33;3.90;;;-0.10;99.90;;;0.57;100.00;100891.22;4732774;30;20267;-67
2020/12/26 00:10:33;;;;;;;6.00;3.47;;;-0.20;99.90;;;0.76;99.87;100894.72;4732758;30;20651;-68
2020/12/26 00:13:00;;;;;;;4.93;4.03;;;-0.10;99.90;;;0.53;100.00;100889.81;4732575;30;20277;-67
2020/12/26 00:15:28;;;;;;;6.87;4.10;;;-0.20;99.90;;;0.50;100.00;100880.34;4733091;30;20274;-67
2020/12/26 00:17:55;;;;;;;5.90;3.37;;;-0.20;99.90;;;0.57;100.00;100878.81;4732861;30;20251;-67
2020/12/26 00:20:23;;;;;;;5.90;2.80;;;-0.30;99.90;;;0.78;99.68;100878.66;4732502;30;20243;-68
2020/12/26 00:22:50;;;;;;;4.17;3.50;;;-0.30;99.90;;;0.58;99.22;100877.81;4732408;30;20255;-66
2020/12/26 00:25:18;;;;;;;3.67;3.00;;;-0.20;99.90;;;0.94;96.07;100871.00;4735965;30;20245;-67
2020/12/26 00:27:45;;;;;;;5.10;3.40;;;-0.10;99.90;;;0.68;98.34;100862.75;4753455;30;20328;-68
2020/12/26 00:30:12;;;;;;;4.80;3.17;;;-0.10;99.90;;;0.98;97.26;100857.31;4753189;30;20225;-66
2020/12/26 00:32:41;;;;;;;4.23;3.20;;;-0.10;99.90;;;1.08;96.04;100858.13;4753464;30;20222;-67
2020/12/26 00:35:08;;;;;;;4.40;3.23;;;0.00;99.90;;;1.04;95.86;100856.75;4753041;30;20684;-67
2020/12/26 00:37:35;;;;;;;5.80;3.10;;;0.00;99.90;;;1.02;95.40;100855.22;4752795;30;20327;-67
2020/12/26 00:40:03;;;;;;;4.60;2.60;;;0.10;99.90;;;1.20;94.42;100854.34;4752783;30;20707;-67
2020/12/26 00:42:30;;;;;;;6.13;2.90;;;0.10;99.90;;;1.16;94.34;100849.47;4752984;30;20639;-67
2020/12/26 00:44:57;;;;;;;3.63;3.07;;;0.20;99.90;;;1.17;94.23;100853.78;4752887;30;20712;-67
2020/12/26 00:47:24;;;;;;;5.67;2.97;;;0.20;99.90;;;0.70;96.42;100858.16;4752850;30;20306;-67
2020/12/26 00:49:52;;;;;;;2.80;2.40;;;0.10;99.90;;;1.08;94.82;100846.69;4753289;30;20343;-67
2020/12/26 00:52:20;;;;;;;4.00;2.50;;;0.10;99.90;;;1.00;94.87;100857.16;4753505;30;20251;-66
2020/12/26 00:54:47;;;;;;;4.13;2.50;;;0.10;99.90;;;0.93;95.81;100859.53;4753699;30;20302;-67
2020/12/26 00:57:14;;;;;;;5.20;2.57;;;0.00;99.90;;;0.97;94.94;100860.09;4753842;30;20297;-67
2020/12/26 00:59:41;;;;;;;3.43;2.67;;;0.10;99.90;;;0.80;96.46;100856.34;4753684;30;20238;-67
2020/12/26 01:02:08;;;;;;;4.90;2.70;;;0.00;99.90;;;0.81;95.49;100859.84;4752941;30;20262;-68
2020/12/26 01:04:37;;;;;;;4.53;2.70;;;0.00;99.90;;;0.78;95.70;100862.75;4751901;30;20212;-67
2020/12/26 01:07:05;;;;;;;3.97;2.70;;;0.00;99.90;;;1.08;94.22;100867.91;4751957;30;20306;-67
2020/12/26 01:09:32;;;;;;;3.33;2.30;;;0.00;99.90;;;0.74;95.10;100877.28;4751983;30;20819;-67
2020/12/26 01:11:59;;;;;;;3.07;2.30;;;0.00;99.90;;;0.67;96.01;100874.34;4752629;30;20332;-66
2020/12/26 01:14:26;;;;;;;3.43;2.77;;;-0.10;99.90;;;0.63;97.52;100872.94;4752546;30;20292;-67
2020/12/26 01:16:54;;;;;;;4.87;2.30;;;-0.20;99.90;;;0.53;96.70;100879.22;4752206;30;20311;-67
2020/12/26 01:19:21;;;;;;;3.90;3.33;;;-0.20;99.90;;;0.61;96.88;100884.69;4753065;30;20570;-67
2020/12/26 01:21:52;;;;;;;5.33;4.10;;;-0.30;99.90;;;0.49;96.60;100891.06;4753096;30;20829;-68
2020/12/26 01:24:20;;;;;;;6.13;4.20;;;-0.30;99.90;;;0.69;96.45;100887.47;4753269;30;20332;-67
2020/12/26 01:26:49;;;;;;;5.80;3.93;;;-0.20;99.90;;;0.47;97.31;100895.66;4753152;30;20298;-68
2020/12/26 01:29:16;;;;;;;5.53;2.90;;;-0.30;99.90;;;0.49;95.75;100893.72;4753190;30;20238;-67
2020/12/26 01:31:50;;;;;;;4.70;2.60;;;-0.30;99.90;;;0.93;93.56;100890.56;4752731;30;20217;-66
2020/12/26 01:34:19;;;;;;;5.30;3.30;;;-0.10;99.90;;;0.93;93.67;100890.56;4752843;30;20291;-67
2020/12/26 01:36:49;;;;;;;3.80;3.00;;;-0.10;99.90;;;0.39;95.62;100891.03;4752685;30;20248;-68
2020/12/26 01:39:17;;;;;;;3.67;3.07;;;-0.20;99.90;;;0.62;95.06;100900.44;4752859;30;20700;-67
2020/12/26 01:41:49;;;;;;;5.33;3.23;;;-0.20;99.90;;;0.52;95.23;100907.53;4752880;30;20252;-67
2020/12/26 01:44:18;;;;;;;3.97;2.60;;;-0.20;99.90;;;0.33;96.15;100901.34;4752975;30;20234;-67
2020/12/26 01:46:47;;;;;;;5.63;3.10;;;-0.30;99.90;;;0.59;94.90;100899.88;4752881;30;20212;-66
2020/12/26 01:49:17;;;;;;;4.77;2.70;;;-0.30;99.90;;;0.22;96.09;100902.28;4752240;30;20307;-67
2020/12/26 01:51:46;;;;;;;3.93;2.20;;;-0.40;99.90;;;0.58;93.97;100898.19;4752667;30;20247;-67
2020/12/26 01:54:13;;;;;;;4.47;2.47;;;-0.30;99.90;;;0.62;93.48;100907.53;4752843;30;20253;-66
2020/12/26 01:56:42;;;;;;;4.40;2.30;;;-0.20;99.90;;;0.50;93.37;100914.78;4752725;30;20305;-67
2020/12/26 01:59:10;;;;;;;4.03;2.10;;;-0.20;99.90;;;0.46;95.33;100901.94;4752428;30;20271;-68
2020/12/26 02:01:40;;;;;;;2.63;2.07;;;-0.30;99.90;;;0.73;94.17;100907.41;4752272;30;20615;-59
2020/12/26 02:04:11;;;;;;;3.33;2.50;;;-0.30;99.90;;;0.38;95.40;100907.94;4752391;30;20297;-59
2020/12/26 02:06:43;;;;;;;5.13;3.60;;;-0.30;99.90;;;0.46;94.24;100910.72;4752387;30;20258;-59
2020/12/26 02:09:12;;;;;;;4.47;3.83;;;-0.30;99.90;;;0.19;96.04;100905.22;4752227;30;20276;-59
2020/12/26 02:11:40;;;;;;;4.93;3.57;;;-0.40;99.90;;;0.29;96.28;100905.25;4752143;30;20226;-58
2020/12/26 02:14:09;;;;;;;6.63;5.30;;;-0.40;99.90;;;0.52;96.30;100904.03;4752228;30;20631;-59
2020/12/26 02:16:45;;;;;;;7.80;5.70;;;-0.50;99.90;;;0.41;95.85;100904.16;4752511;30;20218;-59
2020/12/26 02:19:14;;;;;;;7.17;4.07;;;-0.40;99.90;;;0.08;97.77;100909.78;4752364;30;20235;-59
2020/12/26 02:21:42;;;;;;;4.93;3.93;;;-0.50;99.90;;;0.27;97.43;100899.25;4751946;30;20307;-59
2020/12/26 02:24:11;;;;;;;4.67;3.60;;;-0.50;99.90;;;0.37;97.86;100905.41;4752347;30;20310;-59
2020/12/26 02:26:39;;;;;;;7.83;4.70;;;-0.50;99.90;;;0.48;97.22;100900.84;4752064;30;20270;-59
2020/12/26 02:29:07;;;;;;;5.67;3.97;;;-0.50;99.90;;;0.46;98.02;100896.63;4752181;30;20319;-58
2020/12/26 02:31:36;;;;;;;8.40;3.33;;;-0.50;99.90;;;0.32;98.75;100899.69;4752020;30;20731;-60
2020/12/26 02:34:04;;;;;;;7.03;4.17;;;-0.50;99.90;;;0.29;99.23;100905.25;4751590;30;20303;-60
2020/12/26 02:36:33;;;;;;;4.70;3.27;;;-0.50;99.90;;;0.26;98.33;100895.75;4751814;30;20607;-59
2020/12/26 02:39:00;;;;;;;6.30;4.50;;;-0.50;99.90;;;0.13;99.92;100899.63;4751735;30;20322;-58
2020/12/26 02:41:28;;;;;;;5.57;4.53;;;-0.60;99.90;;;0.47;98.23;100895.66;4751940;30;20293;-59
2020/12/26 02:43:55;;;;;;;8.63;5.00;;;-0.50;99.90;;;0.27;98.34;100901.91;4752000;30;20240;-59
2020/12/26 02:46:22;;;;;;;6.90;4.37;;;-0.50;99.90;;;0.03;99.42;100892.47;4751696;30;20310;-59
2020/12/26 02:48:50;;;;;;;6.07;4.63;;;-0.60;99.90;;;-0.12;100.00;100893.81;4750966;30;20626;-59
2020/12/26 02:51:17;;;;;;;6.37;4.50;;;-0.80;99.90;;;-0.16;100.00;100889.78;4751824;30;20271;-59
2020/12/26 02:53:44;;;;;;;5.67;4.30;;;-0.80;99.90;;;-0.06;100.00;100888.00;4751671;30;20302;-60
2020/12/26 02:56:12;;;;;;;7.30;6.03;;;-0.80;99.90;;;-0.02;100.00;100892.03;4751628;30;20213;-59
2020/12/26 02:58:40;;;;;;;7.83;6.33;;;-0.80;99.90;;;0.23;98.70;100895.19;4751620;30;20311;-59
2020/12/26 03:01:08;;;;;;;9.43;7.30;;;-0.70;99.90;;;-0.12;99.40;100885.88;4751824;30;20212;-59
2020/12/26 03:03:36;;;;;;;11.73;9.40;;;-0.80;99.90;;;-0.27;100.00;100895.16;4751353;30;20632;-59
2020/12/26 03:06:03;;;;;;;8.30;5.87;;;-0.90;99.90;;;-0.23;100.00;100899.22;4751811;30;20216;-59
2020/12/26 03:08:31;;;;;;;7.37;4.27;;;-1.00;99.90;;;-0.30;100.00;100900.72;4751669;30;20236;-59
2020/12/26 03:10:59;;;;;;;6.50;4.40;;;-1.00;99.90;;;-0.08;100.00;100891.75;4751522;30;20303;-59
2020/12/26 03:13:29;;;;;;;5.87;4.67;;;-0.90;99.90;;;0.15;100.00;100893.25;4751806;30;20214;-59
2020/12/26 03:15:57;;;;;;;7.97;5.47;;;-0.90;99.90;;;0.11;98.84;100896.28;4751694;30;20203;-60
2020/12/26 03:18:25;;;;;;;5.40;4.07;;;-0.80;99.90;;;-0.11;100.00;100900.81;4751389;30;20238;-59
2020/12/26 03:20:52;;;;;;;6.47;3.90;;;-0.80;99.90;;;-0.55;100.00;100911.72;4751775;30;20246;-59
2020/12/26 03:23:19;;;;;;;5.73;3.43;;;-0.90;99.90;;;-0.14;100.00;100911.69;4751226;30;20252;-59
2020/12/26 03:25:46;;;;;;;5.47;3.97;;;-1.00;99.90;;;-0.22;100.00;100922.06;4750729;30;20279;-59
2020/12/26 03:28:13;;;;;;;7.87;3.80;;;-0.90;99.90;;;-0.16;99.49;100920.69;4750883;30;20244;-59
2020/12/26 03:30:41;;;;;;;5.70;3.70;;;-0.90;99.90;;;-0.35;100.00;100926.75;4750620;30;20277;-59
2020/12/26 03:33:09;;;;;;;4.00;3.13;;;-1.00;99.90;;;0.03;100.00;100926.91;4750278;30;20208;-59
2020/12/26 03:35:37;;;;;;;4.57;3.30;;;-1.00;99.90;;;-0.04;99.49;100944.31;4750449;30;20217;-61
2020/12/26 03:38:04;;;;;;;6.17;3.80;;;-0.90;99.90;;;0.05;98.21;100939.19;4750640;30;20236;-59
2020/12/26 03:40:31;;;;;;;4.33;3.10;;;-0.80;99.90;;;0.30;97.91;100949.31;4750359;30;20236;-59
2020/12/26 03:42:59;;;;;;;5.87;3.70;;;-0.70;99.90;;;-0.05;99.57;100941.78;4750739;30;20239;-59
2020/12/26 03:45:26;;;;;;;8.60;5.93;;;-0.80;99.90;;;0.17;99.04;100948.72;4750780;30;20236;-59
2020/12/26 03:47:53;;;;;;;6.50;5.37;;;-0.70;99.90;;;-0.15;100.00;100946.19;4750421;30;20207;-59
2020/12/26 03:50:22;;;;;;;11.53;6.07;;;-0.80;99.90;;;-0.25;100.00;100953.25;4750313;30;20282;-59
2020/12/26 03:52:50;;;;;;;7.67;5.00;;;-0.90;99.90;;;-0.33;100.00;100950.41;4750570;30;20303;-61
2020/12/26 03:55:17;;;;;;;9.43;7.30;;;-0.90;99.90;;;-0.06;100.00;100959.50;4750170;30;20248;-59
2020/12/26 03:57:45;;;;;;;8.17;5.50;;;-0.90;99.90;;;0.06;100.00;100954.94;4750272;30;20250;-66
2020/12/26 04:00:13;;;;;;;7.23;5.90;;;-0.80;99.90;;;0.18;99.08;100951.22;4751686;30;20254;-66
2020/12/26 04:02:40;;;;;;;6.57;5.57;;;-0.70;99.90;;;0.03;99.03;100948.09;4753723;30;20303;-67
2020/12/26 04:05:07;;;;;;;7.47;5.83;;;-0.70;99.90;;;-0.14;100.00;100955.81;4753608;30;20304;-67
2020/12/26 04:07:35;;;;;;;5.43;4.30;;;-0.80;99.90;;;-0.08;100.00;100956.13;4753741;30;20304;-67
2020/12/26 04:10:03;;;;;;;6.70;4.83;;;-0.80;99.90;;;-0.18;100.00;100955.25;4753812;30;20245;-67
2020/12/26 04:12:30;;;;;;;5.23;4.37;;;-0.90;99.90;;;0.07;100.00;100955.78;4753546;30;20242;-66
2020/12/26 04:14:57;;;;;;;9.17;4.97;;;-0.90;99.90;;;-0.21;100.00;100958.16;4753780;30;20289;-66
2020/12/26 04:17:24;;;;;;;7.70;5.30;;;-0.90;99.90;;;-0.04;100.00;100957.56;4753425;30;20308;-66
2020/12/26 04:19:51;;;;;;;8.53;6.27;;;-1.00;99.90;;;0.09;100.00;100949.38;4753385;30;20282;-68
2020/12/26 04:22:19;;;;;;;9.00;5.23;;;-0.80;99.90;;;-0.12;100.00;100953.91;4753170;30;20217;-67
2020/12/26 04:24:47;;;;;;;8.27;5.27;;;-0.90;99.90;;;-0.39;100.00;100954.41;4753192;30;20256;-66
2020/12/26 04:27:14;;;;;;;9.47;6.70;;;-1.00;99.90;;;-0.39;100.00;100948.31;4753471;30;20306;-67
2020/12/26 04:29:42;;;;;;;8.97;5.77;;;-1.10;99.90;;;-0.38;100.00;100948.19;4753244;30;20254;-67
2020/12/26 04:32:09;;;;;;;9.57;5.93;;;-1.10;99.90;;;0.07;100.00;100937.25;4752725;30;20304;-67
2020/12/26 04:34:37;;;;;;;9.43;6.00;;;-1.00;99.90;;;0.03;100.00;100941.97;4753366;30;20216;-67
2020/12/26 04:37:04;;;;;;;10.73;5.93;;;-1.00;99.90;;;-0.05;100.00;100942.63;4753346;30;20302;-67
2020/12/26 04:39:31;;;;;;;8.07;5.47;;;-0.80;99.90;;;-0.05;100.00;100939.97;4753387;30;20653;-66
2020/12/26 04:42:00;;;;;;;7.97;5.83;;;-0.80;99.90;;;-0.03;100.00;100939.84;4753359;30;20238;-67
2020/12/26 04:44:27;;;;;;;9.37;6.57;;;-0.90;99.90;;;0.12;100.00;100949.09;4753380;30;20216;-67
2020/12/26 04:46:58;;;;;;;10.40;6.57;;;-0.90;99.90;;;-0.05;100.00;100949.72;4753180;30;20236;-66
2020/12/26 04:49:30;;;;;;;16.03;9.50;;;-0.80;99.90;;;-0.15;100.00;100949.69;4752920;30;20305;-66
2020/12/26 04:52:11;;;;;;;8.97;6.83;;;-0.90;99.90;;;0.16;100.00;100942.56;4753129;30;20201;-67
2020/12/26 04:54:43;;;;;;;11.57;6.87;;;-0.70;99.90;;;0.00;100.00;100948.34;4753111;30;20375;-67
2020/12/26 04:57:11;;;;;;;8.77;6.33;;;-0.80;99.90;;;0.12;100.00;100945.63;4752952;30;20196;-67
2020/12/26 04:59:40;;;;;;;8.80;6.03;;;-0.80;99.90;;;0.16;100.00;100931.97;4753140;30;20279;-66
2020/12/26 05:02:14;;;;;;;10.93;6.40;;;-0.80;99.90;;;-0.14;100.00;100932.84;4752856;30;20274;-67
2020/12/26 05:04:42;;;;;;;6.93;5.73;;;-0.80;99.90;;;-0.09;100.00;100932.44;4753138;30;20251;-66
2020/12/26 05:07:11;;;;;;;8.37;6.27;;;-0.80;99.90;;;-0.01;100.00;100925.50;4747329;30;21011;-67
2020/12/26 05:09:38;;;;;;;11.10;6.23;;;-0.90;99.90;;;-0.06;100.00;100929.53;4734666;30;20244;-67
2020/12/26 05:12:05;;;;;;;10.50;7.17;;;-0.80;99.90;;;0.13;100.00;100921.66;4734526;30;20764;-67
2020/12/26 05:14:33;;;;;;;11.33;6.93;;;-0.70;99.90;;;-0.02;100.00;100915.06;4734849;30;20709;-67
2020/12/26 05:17:01;;;;;;;10.60;6.97;;;-0.80;99.90;;;0.08;100.00;100929.16;4734781;30;20237;-66
2020/12/26 05:19:29;;;;;;;11.20;7.10;;;-0.80;99.90;;;0.00;100.00;100919.22;4734695;30;20233;-67
2020/12/26 05:21:57;;;;;;;9.30;7.37;;;-0.80;99.90;;;0.02;100.00;100920.94;4734305;30;20272;-67
2020/12/26 05:24:25;;;;;;;10.07;7.10;;;-0.80;99.90;;;-0.11;100.00;100929.09;4734876;30;20519;-67
2020/12/26 05:26:53;;;;;;;10.10;7.17;;;-0.80;99.90;;;-0.20;100.00;100928.06;4747958;30;20666;-67
2020/12/26 05:29:23;;;;;;;8.77;6.47;;;-0.90;99.90;;;-0.05;100.00;100928.53;4752495;30;20237;-67
2020/12/26 05:31:55;;;;;;;9.37;7.27;;;-0.80;99.90;;;-0.09;100.00;100925.34;4752564;30;20199;-67
2020/12/26 05:34:38;;;;;;;10.47;7.13;;;-0.90;99.90;;;0.09;100.00;100911.44;4752557;30;20198;-67
2020/12/26 05:37:06;;;;;;;14.67;8.73;;;-0.80;99.90;;;0.10;100.00;100915.78;4751622;30;20676;-67
2020/12/26 05:39:36;;;;;;;11.27;7.80;;;-0.80;99.90;;;0.11;100.00;100909.50;4751788;30;20786;-67
2020/12/26 05:42:04;;;;;;;10.97;7.63;;;-0.80;99.90;;;0.10;100.00;100905.19;4752338;30;20311;-66
2020/12/26 05:44:37;;;;;;;10.57;7.57;;;-0.70;99.90;;;-0.21;100.00;100910.53;4752363;30;20208;-67
2020/12/26 05:47:07;;;;;;;10.90;7.20;;;-0.80;99.90;;;-0.08;100.00;100908.47;4751926;30;20232;-67
2020/12/26 05:49:37;;;;;;;10.07;7.43;;;-0.80;99.90;;;0.12;100.00;100903.25;4751837;30;20240;-66
2020/12/26 05:52:08;;;;;;;10.30;7.20;;;-0.80;99.90;;;0.07;100.00;100898.34;4752001;30;20303;-66
2020/12/26 05:54:36;;;;;;;9.80;7.40;;;-0.80;99.90;;;-0.01;100.00;100892.91;4751991;30;20261;-67
2020/12/26 05:57:16;;;;;;;10.17;7.23;;;-0.80;99.90;;;-0.26;100.00;100898.66;4751782;30;20255;-67
2020/12/26 05:59:47;;;;;;;10.93;7.37;;;-0.90;99.90;;;0.08;100.00;100902.69;4752010;30;20764;-67
2020/12/26 06:02:21;;;;;;;10.23;7.50;;;-0.90;99.90;;;-0.03;100.00;100902.78;4751921;30;20589;-67
2020/12/26 06:04:55;;;;;;;9.70;7.07;;;-0.80;99.90;;;0.18;100.00;100903.56;4751955;30;20200;-67
2020/12/26 06:07:28;;;;;;;12.40;7.63;;;-0.80;99.90;;;0.01;100.00;100914.78;4751209;30;20224;-67
2020/12/26 06:09:58;;;;;;;11.87;7.50;;;-0.80;99.90;;;0.05;100.00;100910.06;4751728;30;20269;-67
2020/12/26 06:12:28;;;;;;;10.93;7.20;;;-0.80;99.90;;;0.19;100.00;100909.69;4751495;30;20283;-67
2020/12/26 06:14:57;;;;;;;11.63;6.77;;;-0.70;99.90;;;-0.05;100.00;100918.78;4751690;30;20591;-67
2020/12/26 06:17:27;;;;;;;10.50;6.97;;;-0.70;99.90;;;-0.27;100.00;100918.16;4751700;30;20302;-67
2020/12/26 06:20:05;;;;;;;12.97;7.00;;;-0.90;99.90;;;0.08;100.00;100909.78;4751615;30;20314;-67
2020/12/26 06:22:45;;;;;;;11.10;7.17;;;-0.80;99.90;;;0.20;100.00;100906.91;4750332;30;20716;-66
2020/12/26 06:25:15;;;;;;;9.10;6.70;;;-0.70;99.90;;;0.25;100.00;100909.16;4751639;30;20285;-67
2020/12/26 06:28:00;;;;;;;9.40;7.07;;;-0.70;99.90;;;0.13;100.00;100902.28;4751502;30;20610;-67
2020/12/26 06:30:29;;;;;;;9.90;5.80;;;-0.70;99.90;;;0.32;100.00;100899.69;4751156;30;20253;-67
2020/12/26 06:32:58;;;;;;;10.70;6.47;;;-0.60;99.90;;;0.38;100.00;100899.97;4751501;30;20213;-67
2020/12/26 06:35:29;;;;;;;11.20;6.40;;;-0.60;99.90;;;0.23;100.00;100900.50;4751340;30;20216;-67
2020/12/26 06:38:18;;;;;;;9.03;6.43;;;-0.60;99.90;;;-0.01;100.00;100904.34;4750859;30;20635;-67
2020/12/26 06:40:59;;;;;;;11.30;6.77;;;-0.70;99.90;;;0.12;100.00;100909.38;4751231;30;20494;-67
2020/12/26 06:43:49;;;;;;;10.20;6.23;;;-0.60;99.90;;;0.13;100.00;100900.47;4751258;30;20196;-66
2020/12/26 06:46:40;;;;;;;9.13;6.63;;;-0.70;99.90;;;0.05;100.00;100902.13;4750945;30;20231;-67
2020/12/26 06:49:27;;;;;;;8.90;5.90;;;-0.70;99.90;;;0.07;100.00;100897.53;4750913;30;20255;-66
2020/12/26 06:51:56;;;;;;;8.20;6.17;;;-0.80;99.90;;;0.40;99.62;100905.13;4750718;30;20199;-67
2020/12/26 06:54:42;;;;;;;8.83;6.27;;;-0.60;99.90;;;0.28;99.17;100893.81;4750844;30;20694;-66
2020/12/26 06:57:09;;;;;;;8.10;6.30;;;-0.60;99.90;;;-0.07;100.00;100901.38;4750830;30;20645;-66
2020/12/26 06:59:37;;;;;;;8.67;6.07;;;-0.70;99.90;;;0.21;99.93;100905.94;4751009;30;20266;-67
2020/12/26 07:02:07;;;;;;;10.53;6.33;;;-0.60;99.90;;;0.27;100.00;100899.25;4750689;30;20301;-66
2020/12/26 07:04:44;;;;;;;9.40;6.33;;;-0.60;99.90;;;0.38;98.13;100883.22;4751028;30;20231;-66
2020/12/26 07:07:12;;;;;;;8.63;6.50;;;-0.50;99.90;;;0.20;99.23;100891.03;4750536;30;20235;-67
2020/12/26 07:09:47;;;;;;;9.17;6.47;;;-0.50;99.90;;;0.19;100.00;100883.22;4750450;30;20297;-66
2020/12/26 07:12:15;;;;;;;10.37;6.20;;;-0.50;99.90;;;0.23;100.00;100889.91;4750862;30;20218;-67
2020/12/26 07:14:44;;;;;;;9.20;6.13;;;-0.50;99.90;;;0.49;98.95;100885.78;4750946;30;20303;-67
2020/12/26 07:17:26;;;;;;;8.80;6.00;;;-0.50;99.90;;;0.64;97.19;100884.41;4750533;30;20308;-67
2020/12/26 07:19:58;;;;;;;9.67;6.90;;;-0.30;99.90;;;0.15;98.69;100892.41;4750712;30;20243;-67
2020/12/26 07:22:27;;;;;;;8.30;6.37;;;-0.40;99.90;;;0.61;97.95;100892.63;4750454;30;20193;-67
2020/12/26 07:24:59;;;;;;;11.47;6.70;;;-0.30;99.90;;;0.67;97.40;100889.41;4750657;30;20211;-67
2020/12/26 07:27:32;;;;;;;7.40;5.77;;;-0.30;99.90;;;0.86;96.00;100878.81;4733011;30;20198;-67
2020/12/26 07:30:11;;;;;;;9.53;6.43;;;-0.20;99.90;;;0.53;97.55;100885.34;4733175;30;20209;-67
2020/12/26 07:32:57;;;;;;;9.60;6.00;;;-0.20;99.90;;;0.75;97.47;100887.75;4732859;30;20660;-68
2020/12/26 07:35:41;;;;;;;8.87;5.63;;;-0.10;99.90;;;0.51;97.23;100895.25;4735593;30;20202;-66
2020/12/26 07:38:16;;;;;;;7.40;5.33;;;-0.10;99.90;;;0.79;97.26;100886.50;4736286;30;20204;-67
2020/12/26 07:40:46;;;;;;;9.30;5.83;;;-0.10;99.90;;;0.91;96.20;100889.84;4736572;30;20299;-67
2020/12/26 07:43:15;;;;;;;9.70;6.13;;;0.00;99.90;;;0.97;95.66;100895.44;4736601;30;20216;-67
2020/12/26 07:45:45;;;;;;;10.17;5.77;;;0.00;99.90;;;0.91;96.66;100892.50;4736602;30;20597;-67
2020/12/26 07:48:14;;;;;;;8.30;6.23;;;0.00;99.90;;;1.04;95.60;100890.38;4736152;30;20250;-67
2020/12/26 07:50:43;;;;;;;9.90;6.13;;;0.10;99.90;;;0.83;96.06;100892.38;4736051;30;20235;-67
2020/12/26 07:53:14;;;;;;;8.90;5.60;;;0.20;99.90;;;0.86;96.68;100894.72;4736091;30;20639;-67
2020/12/26 07:55:41;;;;;;;10.33;6.33;;;0.10;99.90;;;1.12;95.98;100882.56;4735849;30;20257;-66
2020/12/26 07:58:12;;;;;;;9.17;5.23;;;0.20;99.90;;;1.12;95.78;100891.34;4736033;30;20259;-67
2020/12/26 08:00:43;;;;;;;6.43;5.10;;;0.30;99.90;;;1.22;95.96;100891.34;4736164;30;20336;-67
2020/12/26 08:03:13;;;;;;;9.43;5.90;;;0.30;99.90;;;1.39;94.87;100895.91;4736271;30;20215;-67
2020/12/26 08:05:49;;;;;;;8.97;6.00;;;0.40;99.90;;;1.44;94.35;100893.66;4735786;30;20648;-68
2020/12/26 08:08:20;;;;;;;7.33;5.63;;;0.50;99.90;;;1.54;94.68;100896.31;4736120;30;20252;-67
2020/12/26 08:10:55;;;;;;;7.70;5.87;;;0.60;99.90;;;1.70;93.65;100896.53;4736186;30;20196;-68
2020/12/26 08:13:23;;;;;;;7.53;4.90;;;0.70;99.90;;;1.81;93.08;100899.03;4736365;30;20257;-68
2020/12/26 08:16:01;;;;;;;7.87;4.60;;;0.80;99.90;;;1.87;93.10;100904.59;4736227;30;20275;-68
2020/12/26 08:18:31;;;;;;;7.77;5.33;;;0.90;99.90;;;1.98;92.15;100896.44;4736218;30;20201;-67
2020/12/26 08:21:00;;;;;;;6.20;5.03;;;0.90;99.90;;;1.98;91.98;100893.78;4735843;30;20229;-67
2020/12/26 08:23:28;;;;;;;5.90;5.10;;;1.10;99.90;;;2.00;91.58;100904.25;4735664;30;20223;-68
2020/12/26 08:26:00;;;;;;;9.23;5.00;;;1.10;99.90;;;2.06;91.25;100893.06;4742583;30;20305;-67
2020/12/26 08:28:28;;;;;;;8.07;4.83;;;1.10;99.90;;;2.06;91.46;100888.56;4753591;30;20220;-67
2020/12/26 08:30:56;;;;;;;7.33;4.70;;;1.10;99.90;;;2.14;91.94;100893.16;4753502;30;20247;-69
2020/12/26 08:33:30;;;;;;;6.67;5.20;;;1.20;99.90;;;2.31;90.43;100895.00;4753380;30;20307;-68
2020/12/26 08:36:12;;;;;;;6.80;4.33;;;1.30;99.90;;;2.24;90.33;100894.78;4753212;30;20195;-68
2020/12/26 08:38:46;;;;;;;6.97;4.93;;;1.40;99.90;;;2.29;90.38;100892.50;4752926;30;20236;-67
2020/12/26 08:41:17;;;;;;;7.83;4.57;;;1.40;99.90;;;2.15;90.89;100895.66;4753302;30;20245;-68
2020/12/26 08:43:45;;;;;;;5.73;4.13;;;1.40;99.90;;;2.36;90.05;100892.75;4753522;30;20246;-68
2020/12/26 08:46:14;;;;;;;7.10;4.67;;;1.40;99.90;;;2.44;90.13;100892.81;4752595;30;20208;-67
2020/12/26 08:48:42;;;;;;;6.50;4.47;;;1.40;99.90;;;2.24;90.85;100901.91;4753113;30;20272;-67
2020/12/26 08:51:20;;;;;;;8.20;4.80;;;1.40;99.90;;;2.20;90.66;100896.03;4752620;30;20221;-68
2020/12/26 08:53:49;;;;;;;5.53;4.80;;;1.40;99.90;;;2.39;90.46;100901.25;4753054;30;20210;-68
2020/12/26 08:56:30;;;;;;;6.20;4.83;;;1.50;99.90;;;2.55;89.57;100899.75;4752865;30;20585;-68
2020/12/26 08:58:57;;;;;;;7.13;4.47;;;1.60;99.90;;;2.70;88.92;100909.75;4752854;30;20773;-68
2020/12/26 09:01:24;;;;;;;6.53;4.80;;;1.70;99.90;;;2.69;88.02;100908.03;4752700;30;20595;-68
2020/12/26 09:03:52;;;;;;;6.30;5.00;;;1.80;99.90;;;3.05;86.71;100903.56;4753775;30;20212;-69
2020/12/26 09:06:32;;;;;;;7.90;5.03;;;1.90;99.90;;;3.10;86.83;100912.78;4753241;30;20219;-68
2020/12/26 09:09:13;;;;;;;5.03;4.03;;;2.10;99.90;;;3.27;86.74;100908.41;4754036;30;20197;-67
2020/12/26 09:11:40;;;;;;;6.50;4.17;;;2.20;99.90;;;3.49;84.89;100918.56;4753743;30;20291;-68
2020/12/26 09:14:16;;;;;;;7.67;4.17;;;2.30;99.90;;;3.63;83.93;100918.84;4753879;30;20249;-68
2020/12/26 09:16:43;;;;;;;5.10;3.87;;;2.40;99.90;;;3.68;83.76;100903.25;4753821;30;20283;-68
2020/12/26 09:19:10;;;;;;;5.03;4.27;;;2.60;99.90;;;3.61;83.51;100904.00;4753581;30;20339;-68
2020/12/26 09:21:39;;;;;;;5.63;4.03;;;2.60;99.90;;;3.68;83.54;100913.06;4753434;30;20752;-68
2020/12/26 09:24:18;;;;;;;5.27;3.73;;;2.60;99.90;;;3.65;83.43;100911.53;4753393;30;20274;-69
2020/12/26 09:26:46;;;;;;;5.53;3.83;;;2.70;99.90;;;3.63;83.88;100913.53;4753369;30;20210;-68
2020/12/26 09:29:22;;;;;;;9.43;4.50;;;2.70;99.90;;;3.64;83.71;100914.34;4753251;30;20216;-69
2020/12/26 09:31:50;;;;;;;6.13;4.23;;;2.70;99.90;;;3.56;83.80;100912.47;4753086;30;20199;-68
2020/12/26 09:34:20;;;;;;;7.10;4.63;;;2.70;99.90;;;3.70;82.76;100916.41;4753338;30;20294;-68
2020/12/26 09:37:02;;;;;;;6.20;4.50;;;2.70;99.90;;;3.64;84.51;100917.00;4753143;30;20779;-68
2020/12/26 09:39:29;;;;;;;5.70;4.27;;;2.70;99.90;;;3.71;83.58;100923.38;4753235;30;20216;-68
2020/12/26 09:41:56;;;;;;;6.00;5.13;;;2.70;99.90;;;3.82;83.63;100915.16;4752901;30;20299;-67
2020/12/26 09:44:23;;;;;;;9.23;6.00;;;2.80;99.90;;;3.81;83.06;100924.13;4753262;30;20235;-68
2020/12/26 09:46:58;;;;;;;7.40;4.60;;;2.80;99.90;;;3.77;83.63;100922.78;4752607;30;20309;-68
2020/12/26 09:49:25;;;;;;;5.77;4.37;;;2.80;99.90;;;3.81;82.23;100924.13;4751986;30;20283;-67
2020/12/26 09:51:53;;;;;;;4.90;3.90;;;2.80;99.90;;;3.81;82.84;100929.44;4752015;30;20653;-68
2020/12/26 09:54:20;;;;;;;5.17;3.60;;;2.90;99.90;;;3.68;83.66;100929.88;4752127;30;20734;-67
2020/12/26 09:56:47;;;;;;;5.57;4.03;;;2.80;99.90;;;3.79;83.44;100922.63;4751768;30;20303;-68
2020/12/26 09:59:15;;;;;;;5.40;4.03;;;2.80;99.90;;;3.85;83.27;100920.16;4751496;30;20238;-68
2020/12/26 10:01:42;;;;;;;6.50;4.40;;;2.90;99.90;;;3.84;83.09;100930.97;4752308;30;20311;-68
2020/12/26 10:04:09;;;;;;;5.90;3.97;;;2.90;99.90;;;4.03;83.41;100928.06;4752490;30;20216;-68
2020/12/26 10:06:36;;;;;;;6.70;4.10;;;2.90;99.90;;;3.96;83.18;100927.03;4751983;30;20686;-68
2020/12/26 10:09:04;;;;;;;9.47;4.37;;;3.00;99.90;;;3.98;83.29;100930.38;4751879;30;20256;-67
2020/12/26 10:11:32;;;;;;;5.97;3.93;;;3.00;99.90;;;4.01;83.35;100919.41;4752049;30;20213;-68
2020/12/26 10:14:00;;;;;;;7.20;5.03;;;3.00;99.90;;;4.09;82.41;100904.28;4751967;30;20252;-66
2020/12/26 10:16:27;;;;;;;6.93;5.13;;;3.00;99.90;;;4.06;82.49;100912.59;4751499;30;20333;-67
2020/12/26 10:18:54;;;;;;;6.67;5.47;;;3.10;99.90;;;3.98;83.64;100903.72;4751384;30;20704;-67
2020/12/26 10:21:22;;;;;;;6.23;5.27;;;3.00;99.90;;;4.05;84.32;100910.09;4751760;30;20451;-67
2020/12/26 10:23:49;;;;;;;6.77;4.67;;;3.10;99.90;;;4.11;83.03;100904.94;4751654;30;20325;-67
2020/12/26 10:26:17;;;;;;;8.47;4.47;;;3.20;99.90;;;4.09;84.47;100906.97;4751589;30;20208;-67